Time;durP1;ratioP1;P1;durP2;ratioP2;P2;SDS_P1;SDS_P2;PMS_P1;PMS_P2;Temp;Humidity;BMP_temperature;BMP_pressure;BME280_temperature;BME280_humidity;BME280_pressure;Samples;Min_cycle;Max_cycle;Signal;HPM_P1;HPM_P2
2022/01/21 00:00:27;;;;;;;1.20;1.20;;;;;;;;;;5012215;28;20185;-63
2022/01/21 00:02:53;;;;;;;1.30;1.30;;;;;;;;;;5011941;28;20188;-63
2022/01/21 00:05:21;;;;;;;1.10;1.10;;;;;;;;;;5012227;28;20181;-63
2022/01/21 00:07:47;;;;;;;1.00;1.00;;;;;;;;;;5012055;28;20186;-63
2022/01/21 00:10:13;;;;;;;0.98;0.98;;;;;;;;;;5012153;28;20184;-63
2022/01/21 00:12:39;;;;;;;1.65;1.65;;;;;;;;;;5011674;28;20197;-63
2022/01/21 00:15:06;;;;;;;1.05;1.05;;;;;;;;;;5011999;28;20217;-63
2022/01/21 00:17:33;;;;;;;1.17;1.17;;;;;;;;;;4994212;28;20260;-63
2022/01/21 00:30:56;;;;;;;1.20;1.20;;;;;;;;;;5010479;28;20224;-62
2022/01/21 00:33:22;;;;;;;0.80;0.80;;;;;;;;;;5010714;28;20213;-63
2022/01/21 00:35:48;;;;;;;0.90;0.90;;;;;;;;;;5011660;28;20476;-63
2022/01/21 00:38:15;;;;;;;0.90;0.90;;;;;;;;;;5011708;28;20884;-63
2022/01/21 00:40:41;;;;;;;1.00;1.00;;;;;;;;;;5011781;28;20786;-63
2022/01/21 00:45:33;;;;;;;1.00;1.00;;;;;;;;;;5011699;28;20178;-63
2022/01/21 00:47:59;;;;;;;0.88;0.88;;;;;;;;;;5011634;28;20982;-62
2022/01/21 00:50:25;;;;;;;0.90;0.90;;;;;;;;;;5011426;28;20178;-62
2022/01/21 00:52:51;;;;;;;0.95;0.95;;;;;;;;;;5011294;28;20408;-62
2022/01/21 00:55:17;;;;;;;1.10;1.10;;;;;;;;;;5011552;28;20180;-62
2022/01/21 00:57:43;;;;;;;1.17;1.17;;;;;;;;;;5011297;28;20518;-62
2022/01/21 01:00:10;;;;;;;1.10;1.10;;;;;;;;;;5011444;28;20166;-62
2022/01/21 01:02:37;;;;;;;1.60;1.60;;;;;;;;;;5011174;28;20412;-63
2022/01/21 01:05:03;;;;;;;1.23;1.23;;;;;;;;;;5011186;28;20225;-63
2022/01/21 01:07:29;;;;;;;1.13;1.13;;;;;;;;;;5011216;28;20514;-63
2022/01/21 01:09:57;;;;;;;1.20;1.20;;;;;;;;;;5011247;28;20166;-63
2022/01/21 01:12:51;;;;;;;1.50;1.50;;;;;;;;;;5011132;28;20193;-63
2022/01/21 01:20:46;;;;;;;1.15;1.15;;;;;;;;;;5008706;28;20189;-63
2022/01/21 01:28:32;;;;;;;1.00;1.00;;;;;;;;;;5009388;28;20576;-63
2022/01/21 01:30:58;;;;;;;1.00;1.00;;;;;;;;;;5011094;28;20178;-63
2022/01/21 01:33:33;;;;;;;1.10;1.10;;;;;;;;;;4993165;28;20194;-63
2022/01/21 01:35:59;;;;;;;1.20;1.20;;;;;;;;;;5011227;28;20600;-63
2022/01/21 01:41:18;;;;;;;1.15;1.15;;;;;;;;;;4999247;28;20618;-62
2022/01/21 01:51:59;;;;;;;1.10;1.10;;;;;;;;;;5013767;28;20181;-64
2022/01/21 01:54:26;;;;;;;1.30;1.30;;;;;;;;;;5014340;28;20276;-62
2022/01/21 01:56:54;;;;;;;1.20;1.20;;;;;;;;;;5014478;28;20181;-63
2022/01/21 01:59:20;;;;;;;1.02;1.02;;;;;;;;;;5014583;28;20544;-63
2022/01/21 02:01:56;;;;;;;1.30;1.30;;;;;;;;;;5011998;28;20169;-62
2022/01/21 02:04:22;;;;;;;1.10;1.10;;;;;;;;;;4996578;28;20228;-63
2022/01/21 02:06:48;;;;;;;1.13;1.13;;;;;;;;;;5014419;28;20174;-63
2022/01/21 02:09:15;;;;;;;1.10;1.10;;;;;;;;;;5014220;28;20559;-62
2022/01/21 02:11:41;;;;;;;1.20;1.20;;;;;;;;;;4996950;28;20424;-63
2022/01/21 02:14:10;;;;;;;1.27;1.27;;;;;;;;;;5013865;28;20209;-63
2022/01/21 02:22:06;;;;;;;1.35;1.35;;;;;;;;;;5011759;28;20252;-63
2022/01/21 02:24:46;;;;;;;1.25;1.25;;;;;;;;;;5013818;28;20576;-63
2022/01/21 02:27:12;;;;;;;1.23;1.23;;;;;;;;;;5012240;28;20173;-63
2022/01/21 02:29:46;;;;;;;1.00;1.00;;;;;;;;;;5013911;28;20719;-63
2022/01/21 02:32:12;;;;;;;1.25;1.25;;;;;;;;;;5012090;28;20220;-63
2022/01/21 02:34:38;;;;;;;1.30;1.30;;;;;;;;;;4996116;28;20200;-63
2022/01/21 02:37:05;;;;;;;1.27;1.27;;;;;;;;;;5013821;28;20182;-63
2022/01/21 02:39:31;;;;;;;1.40;1.40;;;;;;;;;;5013791;28;20664;-63
2022/01/21 02:41:57;;;;;;;1.40;1.40;;;;;;;;;;5013791;28;20182;-64
2022/01/21 02:44:24;;;;;;;1.00;1.00;;;;;;;;;;5013485;28;20198;-63
2022/01/21 02:46:59;;;;;;;1.27;1.27;;;;;;;;;;5013650;28;20257;-63
2022/01/21 02:49:25;;;;;;;2.90;2.80;;;;;;;;;;5013065;28;20196;-63
2022/01/21 02:51:52;;;;;;;1.20;1.20;;;;;;;;;;5013572;28;20174;-63
2022/01/21 02:54:18;;;;;;;1.20;1.20;;;;;;;;;;4995312;28;20194;-63
2022/01/21 02:56:44;;;;;;;1.20;1.20;;;;;;;;;;5013018;28;20182;-64
2022/01/21 02:59:10;;;;;;;1.27;1.27;;;;;;;;;;5013281;28;20192;-62
2022/01/21 03:01:37;;;;;;;1.20;1.20;;;;;;;;;;5013395;28;20185;-62
2022/01/21 03:04:05;;;;;;;1.40;1.40;;;;;;;;;;5012898;28;20201;-62
2022/01/21 03:06:31;;;;;;;1.23;1.23;;;;;;;;;;5013300;28;20569;-62
2022/01/21 03:08:58;;;;;;;1.05;1.05;;;;;;;;;;5013115;28;20588;-64
2022/01/21 03:11:25;;;;;;;1.10;1.10;;;;;;;;;;5013217;28;20675;-62
2022/01/21 03:13:51;;;;;;;1.27;1.27;;;;;;;;;;5012810;28;20213;-63
2022/01/21 03:16:17;;;;;;;1.25;1.25;;;;;;;;;;5013130;28;20173;-63
2022/01/21 03:18:44;;;;;;;0.85;0.85;;;;;;;;;;5013097;28;20205;-62
2022/01/21 03:21:15;;;;;;;1.23;1.23;;;;;;;;;;5013213;28;20645;-62
2022/01/21 03:23:41;;;;;;;1.17;1.17;;;;;;;;;;5012829;28;20237;-62
2022/01/21 03:26:07;;;;;;;1.35;1.35;;;;;;;;;;5012957;28;20252;-63
2022/01/21 03:28:33;;;;;;;1.00;1.00;;;;;;;;;;5012818;28;20280;-63
2022/01/21 03:30:59;;;;;;;1.00;1.00;;;;;;;;;;5012766;28;20451;-64
2022/01/21 03:33:25;;;;;;;0.90;0.90;;;;;;;;;;5012665;28;20522;-64
2022/01/21 03:35:53;;;;;;;1.00;1.00;;;;;;;;;;5012824;28;20261;-63
2022/01/21 03:38:19;;;;;;;1.08;1.08;;;;;;;;;;4994985;28;20178;-63
2022/01/21 03:40:45;;;;;;;1.30;1.30;;;;;;;;;;5012533;28;20174;-63
2022/01/21 03:43:12;;;;;;;1.10;1.10;;;;;;;;;;5012309;28;20184;-63
2022/01/21 03:45:38;;;;;;;1.00;1.00;;;;;;;;;;5012675;28;20236;-63
2022/01/21 03:48:05;;;;;;;1.05;1.05;;;;;;;;;;5012340;28;20292;-63
2022/01/21 03:50:32;;;;;;;1.13;1.13;;;;;;;;;;5012671;28;20589;-64
2022/01/21 03:53:00;;;;;;;1.00;1.00;;;;;;;;;;5012312;28;20220;-63
2022/01/21 03:55:26;;;;;;;1.00;1.00;;;;;;;;;;5012428;28;20166;-63
2022/01/21 03:57:52;;;;;;;1.10;1.10;;;;;;;;;;5012467;28;20169;-63
2022/01/21 04:00:20;;;;;;;1.00;1.00;;;;;;;;;;5012241;28;20185;-63
2022/01/21 04:02:46;;;;;;;0.82;0.82;;;;;;;;;;5012083;28;20174;-62
2022/01/21 04:05:12;;;;;;;1.00;1.00;;;;;;;;;;5012314;28;20185;-63
2022/01/21 04:07:38;;;;;;;1.30;1.30;;;;;;;;;;5012020;28;20656;-63
2022/01/21 04:10:05;;;;;;;0.90;0.90;;;;;;;;;;4994548;28;20169;-63
2022/01/21 04:12:31;;;;;;;1.40;1.40;;;;;;;;;;5011925;28;20488;-63
2022/01/21 04:14:58;;;;;;;1.10;1.10;;;;;;;;;;5011855;28;20641;-63
2022/01/21 04:17:25;;;;;;;1.10;1.10;;;;;;;;;;5012047;28;20637;-63
2022/01/21 04:19:51;;;;;;;1.30;1.30;;;;;;;;;;4994359;28;20267;-63
2022/01/21 04:22:17;;;;;;;1.20;1.20;;;;;;;;;;5011889;28;20171;-63
2022/01/21 04:24:45;;;;;;;1.07;1.07;;;;;;;;;;5011592;28;20432;-63
2022/01/21 04:27:11;;;;;;;1.20;1.20;;;;;;;;;;5011868;28;20412;-63
2022/01/21 04:29:37;;;;;;;6.60;5.00;;;;;;;;;;5027809;22;20216;-65
2022/01/21 04:32:04;;;;;;;1.47;1.47;;;;;;;;;;5020713;28;20611;-65
2022/01/21 04:34:30;;;;;;;1.27;1.27;;;;;;;;;;5020219;28;20783;-65
2022/01/21 04:36:56;;;;;;;1.40;1.40;;;;;;;;;;5022733;28;20695;-65
2022/01/21 04:39:30;;;;;;;1.45;1.45;;;;;;;;;;5021372;28;20538;-65
2022/01/21 04:47:26;;;;;;;1.10;1.10;;;;;;;;;;5000785;28;20189;-66
2022/01/21 04:49:52;;;;;;;1.15;1.15;;;;;;;;;;5000656;28;20776;-66
2022/01/21 04:52:21;;;;;;;1.00;1.00;;;;;;;;;;5001231;28;20173;-66
2022/01/21 04:54:47;;;;;;;1.33;1.33;;;;;;;;;;5002194;28;20182;-66
2022/01/21 04:57:13;;;;;;;1.20;1.20;;;;;;;;;;5000864;28;20422;-66
2022/01/21 04:59:40;;;;;;;1.20;1.20;;;;;;;;;;5002551;28;20431;-66
2022/01/21 05:02:06;;;;;;;1.10;1.10;;;;;;;;;;5001946;28;20185;-66
2022/01/21 05:04:32;;;;;;;1.20;1.20;;;;;;;;;;5000421;28;20187;-66
2022/01/21 05:06:58;;;;;;;1.10;1.10;;;;;;;;;;5002548;28;20425;-66
2022/01/21 05:09:31;;;;;;;1.35;1.35;;;;;;;;;;4992162;28;20708;-66
2022/01/21 05:11:57;;;;;;;1.40;1.40;;;;;;;;;;4992200;28;20181;-66
2022/01/21 05:14:28;;;;;;;1.20;1.20;;;;;;;;;;4991956;28;20171;-66
2022/01/21 05:17:03;;;;;;;1.77;1.75;;;;;;;;;;4992125;28;20181;-66
2022/01/21 05:19:29;;;;;;;1.40;1.40;;;;;;;;;;4995233;28;20181;-66
2022/01/21 05:21:55;;;;;;;1.20;1.20;;;;;;;;;;4994840;28;20277;-66
2022/01/21 05:24:21;;;;;;;1.07;1.07;;;;;;;;;;4995821;28;20480;-66
2022/01/21 05:26:58;;;;;;;1.20;1.20;;;;;;;;;;4996019;28;20410;-66
2022/01/21 05:29:26;;;;;;;1.35;1.35;;;;;;;;;;4995786;28;20300;-66
2022/01/21 05:31:52;;;;;;;1.15;1.15;;;;;;;;;;4994586;28;20197;-66
2022/01/21 05:34:18;;;;;;;1.10;1.10;;;;;;;;;;4995827;28;20167;-66
2022/01/21 05:36:44;;;;;;;1.20;1.20;;;;;;;;;;4994949;28;20597;-66
2022/01/21 05:39:14;;;;;;;1.25;1.25;;;;;;;;;;4995962;28;20217;-66
2022/01/21 05:41:40;;;;;;;1.23;1.23;;;;;;;;;;4995894;28;20229;-66
2022/01/21 05:44:16;;;;;;;1.30;1.30;;;;;;;;;;4995608;28;20174;-66
2022/01/21 05:46:55;;;;;;;1.50;1.50;;;;;;;;;;4995746;28;20266;-66
2022/01/21 05:49:21;;;;;;;1.42;1.42;;;;;;;;;;4995543;28;20202;-66
2022/01/21 05:51:48;;;;;;;1.45;1.45;;;;;;;;;;4994229;28;20555;-66
2022/01/21 05:54:14;;;;;;;1.40;1.40;;;;;;;;;;4995298;28;20174;-66
2022/01/21 05:56:40;;;;;;;1.10;1.10;;;;;;;;;;4994383;28;20673;-66
2022/01/21 05:59:06;;;;;;;1.30;1.30;;;;;;;;;;4994125;28;20178;-66
2022/01/21 06:01:33;;;;;;;1.50;1.50;;;;;;;;;;4993261;28;20202;-66
2022/01/21 06:03:59;;;;;;;1.55;1.55;;;;;;;;;;4994175;28;20206;-66
2022/01/21 06:06:25;;;;;;;1.40;1.40;;;;;;;;;;4995010;28;20264;-66
2022/01/21 06:08:51;;;;;;;1.50;1.50;;;;;;;;;;4994737;28;20744;-66
2022/01/21 06:11:17;;;;;;;1.30;1.30;;;;;;;;;;4987860;28;20478;-66
2022/01/21 06:13:45;;;;;;;1.40;1.40;;;;;;;;;;4991462;28;20217;-66
2022/01/21 06:16:11;;;;;;;1.30;1.30;;;;;;;;;;4995078;28;20405;-66
2022/01/21 06:18:37;;;;;;;1.93;1.83;;;;;;;;;;4994749;28;20185;-66
2022/01/21 06:21:03;;;;;;;1.20;1.20;;;;;;;;;;4994934;28;20430;-66
2022/01/21 06:23:29;;;;;;;1.30;1.30;;;;;;;;;;4992734;28;20646;-66
2022/01/21 06:25:55;;;;;;;1.20;1.20;;;;;;;;;;4975641;28;20417;-66
2022/01/21 06:28:22;;;;;;;1.38;1.38;;;;;;;;;;4975555;28;20556;-66
2022/01/21 06:30:49;;;;;;;1.05;1.05;;;;;;;;;;4974199;28;20253;-66
2022/01/21 06:33:15;;;;;;;1.20;1.20;;;;;;;;;;4975185;28;20171;-66
2022/01/21 06:35:41;;;;;;;1.00;1.00;;;;;;;;;;4977474;28;20542;-66
2022/01/21 06:38:07;;;;;;;0.90;0.90;;;;;;;;;;4994660;28;20553;-66
2022/01/21 06:40:33;;;;;;;1.33;1.33;;;;;;;;;;4995267;28;20228;-66
2022/01/21 06:43:02;;;;;;;1.60;1.60;;;;;;;;;;4992961;28;20929;-66
2022/01/21 06:45:28;;;;;;;1.70;1.70;;;;;;;;;;4994032;28;20417;-66
2022/01/21 06:47:54;;;;;;;1.15;1.15;;;;;;;;;;4994340;28;20237;-66
2022/01/21 06:50:20;;;;;;;1.20;1.20;;;;;;;;;;4994527;28;20221;-66
2022/01/21 06:52:46;;;;;;;1.30;1.30;;;;;;;;;;4993644;28;20426;-66
2022/01/21 06:55:12;;;;;;;0.90;0.90;;;;;;;;;;4994345;28;20508;-66
2022/01/21 06:57:39;;;;;;;1.08;1.08;;;;;;;;;;4994554;28;20402;-66
2022/01/21 07:00:09;;;;;;;1.13;1.13;;;;;;;;;;4994387;28;20205;-66
2022/01/21 07:02:35;;;;;;;1.58;1.58;;;;;;;;;;4994094;28;20178;-66
2022/01/21 07:05:02;;;;;;;1.00;1.00;;;;;;;;;;4994307;28;20174;-66
2022/01/21 07:07:28;;;;;;;1.20;1.20;;;;;;;;;;4994189;28;20410;-66
2022/01/21 07:09:55;;;;;;;1.40;1.40;;;;;;;;;;4994469;28;20268;-66
2022/01/21 07:12:21;;;;;;;1.15;1.15;;;;;;;;;;4992926;28;20414;-66
2022/01/21 07:14:47;;;;;;;1.17;1.17;;;;;;;;;;4994052;28;20208;-66
2022/01/21 07:17:13;;;;;;;1.30;1.30;;;;;;;;;;4994056;28;20543;-66
2022/01/21 07:19:39;;;;;;;1.25;1.25;;;;;;;;;;4993938;28;20437;-66
2022/01/21 07:22:05;;;;;;;1.10;1.10;;;;;;;;;;4994038;28;20705;-66
2022/01/21 07:24:32;;;;;;;1.20;1.20;;;;;;;;;;4993923;28;20437;-66
2022/01/21 07:26:57;;;;;;;1.30;1.30;;;;;;;;;;4993884;28;20681;-66
2022/01/21 07:29:24;;;;;;;1.00;1.00;;;;;;;;;;4993904;28;20213;-66
2022/01/21 07:31:53;;;;;;;1.05;1.05;;;;;;;;;;4993931;28;20425;-66
2022/01/21 07:34:19;;;;;;;1.50;1.50;;;;;;;;;;4993626;28;20171;-66
2022/01/21 07:36:45;;;;;;;1.00;1.00;;;;;;;;;;4993838;28;20174;-66
2022/01/21 07:39:11;;;;;;;1.10;1.10;;;;;;;;;;4993875;28;20236;-66
2022/01/21 07:41:37;;;;;;;1.50;1.50;;;;;;;;;;4993263;28;20532;-66
2022/01/21 07:44:03;;;;;;;1.10;1.10;;;;;;;;;;4993471;28;20552;-66
2022/01/21 07:46:29;;;;;;;1.15;1.15;;;;;;;;;;4993408;28;20409;-66
2022/01/21 07:48:56;;;;;;;0.90;0.90;;;;;;;;;;4993464;28;20197;-66
2022/01/21 07:51:23;;;;;;;1.15;1.15;;;;;;;;;;4993383;28;20221;-66
2022/01/21 07:53:49;;;;;;;1.35;1.35;;;;;;;;;;4993261;28;20603;-66
2022/01/21 07:56:15;;;;;;;1.03;1.03;;;;;;;;;;4993558;28;20205;-67
2022/01/21 07:58:41;;;;;;;1.10;1.10;;;;;;;;;;4993338;28;20464;-66
2022/01/21 08:01:07;;;;;;;0.87;0.87;;;;;;;;;;4993296;28;20941;-66
2022/01/21 08:03:33;;;;;;;1.15;1.15;;;;;;;;;;4991590;28;20421;-66
2022/01/21 08:05:59;;;;;;;1.30;1.30;;;;;;;;;;4993165;28;20174;-66
2022/01/21 08:08:26;;;;;;;1.10;1.10;;;;;;;;;;4993010;28;20229;-66
2022/01/21 08:10:52;;;;;;;1.10;1.10;;;;;;;;;;4993018;28;20465;-66
2022/01/21 08:13:18;;;;;;;1.37;1.37;;;;;;;;;;4992809;28;20760;-66
2022/01/21 08:15:44;;;;;;;1.37;1.37;;;;;;;;;;4992948;28;20410;-66
2022/01/21 08:18:10;;;;;;;1.20;1.20;;;;;;;;;;4992754;28;20417;-66
2022/01/21 08:20:36;;;;;;;1.10;1.10;;;;;;;;;;4992937;28;20651;-66
2022/01/21 08:23:02;;;;;;;2.20;2.10;;;;;;;;;;4992681;28;20181;-66
2022/01/21 08:25:28;;;;;;;0.93;0.93;;;;;;;;;;4992882;28;20174;-66
2022/01/21 08:27:54;;;;;;;1.10;1.10;;;;;;;;;;4992831;28;20413;-66
2022/01/21 08:30:20;;;;;;;1.00;1.00;;;;;;;;;;4991424;28;20608;-66
2022/01/21 08:32:46;;;;;;;1.00;1.00;;;;;;;;;;4993325;28;20406;-66
2022/01/21 08:35:12;;;;;;;1.60;1.60;;;;;;;;;;4993023;28;20170;-66
2022/01/21 08:37:38;;;;;;;1.60;1.60;;;;;;;;;;4991794;28;20409;-66
2022/01/21 08:40:05;;;;;;;1.60;1.60;;;;;;;;;;4991967;28;20292;-66
2022/01/21 08:42:31;;;;;;;1.50;1.50;;;;;;;;;;4991861;28;20261;-66
2022/01/21 08:44:57;;;;;;;1.10;1.10;;;;;;;;;;4992590;28;20174;-66
2022/01/21 08:47:23;;;;;;;1.60;1.60;;;;;;;;;;4992060;28;20237;-66
2022/01/21 08:49:50;;;;;;;1.48;1.48;;;;;;;;;;4991553;28;20461;-66
2022/01/21 08:52:22;;;;;;;1.27;1.27;;;;;;;;;;4991625;28;20170;-66
2022/01/21 08:54:48;;;;;;;1.13;1.13;;;;;;;;;;4991974;28;20209;-66
2022/01/21 08:57:15;;;;;;;1.30;1.30;;;;;;;;;;4992103;28;20519;-67
2022/01/21 08:59:40;;;;;;;1.77;1.67;;;;;;;;;;4991488;28;20174;-66
2022/01/21 09:02:06;;;;;;;0.90;0.90;;;;;;;;;;4991763;28;20179;-66
2022/01/21 09:04:32;;;;;;;1.40;1.40;;;;;;;;;;4991517;28;20410;-66
2022/01/21 09:06:58;;;;;;;1.30;1.30;;;;;;;;;;4991991;28;20582;-66
2022/01/21 09:09:25;;;;;;;1.10;1.10;;;;;;;;;;4991803;28;20468;-66
2022/01/21 09:11:53;;;;;;;1.15;1.15;;;;;;;;;;4991415;28;20173;-66
2022/01/21 09:14:19;;;;;;;1.88;1.77;;;;;;;;;;4991548;28;20181;-66
2022/01/21 09:16:45;;;;;;;1.45;1.45;;;;;;;;;;4991488;28;20550;-66
2022/01/21 09:19:11;;;;;;;1.10;1.10;;;;;;;;;;4991908;28;20245;-66
2022/01/21 09:21:41;;;;;;;1.20;1.20;;;;;;;;;;4991556;28;20198;-66
2022/01/21 09:24:07;;;;;;;0.90;0.90;;;;;;;;;;4991423;28;20544;-66
2022/01/21 09:26:33;;;;;;;1.40;1.40;;;;;;;;;;4991605;28;20186;-66
2022/01/21 09:29:03;;;;;;;1.38;1.38;;;;;;;;;;4991296;28;20272;-66
2022/01/21 09:31:29;;;;;;;1.15;1.15;;;;;;;;;;4991447;28;20204;-66
2022/01/21 09:33:55;;;;;;;1.38;1.38;;;;;;;;;;4990980;28;20216;-66
2022/01/21 09:36:21;;;;;;;1.17;1.17;;;;;;;;;;4991991;28;20579;-66
2022/01/21 09:38:47;;;;;;;1.07;1.07;;;;;;;;;;4992008;28;20758;-66
2022/01/21 09:41:15;;;;;;;1.05;1.05;;;;;;;;;;4991928;28;20516;-66
2022/01/21 09:43:44;;;;;;;0.90;0.90;;;;;;;;;;4975080;28;20229;-66
2022/01/21 09:46:12;;;;;;;1.15;1.15;;;;;;;;;;4972513;28;20176;-66
2022/01/21 09:48:51;;;;;;;1.15;1.15;;;;;;;;;;4972358;28;20191;-66
2022/01/21 09:51:18;;;;;;;1.10;1.10;;;;;;;;;;4972250;28;20222;-65
2022/01/21 09:53:44;;;;;;;1.20;1.20;;;;;;;;;;4972231;28;20254;-66
2022/01/21 09:56:14;;;;;;;1.45;1.45;;;;;;;;;;4972314;28;20196;-66
2022/01/21 09:58:41;;;;;;;1.48;1.48;;;;;;;;;;4972101;28;20171;-66
2022/01/21 10:01:07;;;;;;;1.30;1.30;;;;;;;;;;4972200;28;20204;-66
2022/01/21 10:03:34;;;;;;;1.10;1.10;;;;;;;;;;4971924;28;20559;-66
2022/01/21 10:06:01;;;;;;;1.60;1.60;;;;;;;;;;4974430;28;20610;-65
2022/01/21 10:08:28;;;;;;;1.10;1.10;;;;;;;;;;4975681;28;20299;-66
2022/01/21 10:10:54;;;;;;;1.30;1.30;;;;;;;;;;4975950;28;20206;-66
2022/01/21 10:13:20;;;;;;;1.40;1.40;;;;;;;;;;4975616;28;20260;-66
2022/01/21 10:15:47;;;;;;;1.38;1.38;;;;;;;;;;4975852;28;20413;-66
2022/01/21 10:18:13;;;;;;;0.95;0.95;;;;;;;;;;4975825;28;20215;-66
2022/01/21 10:20:56;;;;;;;0.90;0.90;;;;;;;;;;4975797;28;20201;-66
2022/01/21 10:23:22;;;;;;;0.90;0.90;;;;;;;;;;4975589;28;20176;-66
2022/01/21 10:25:56;;;;;;;1.10;1.10;;;;;;;;;;4975755;28;20182;-65
2022/01/21 10:28:22;;;;;;;0.82;0.82;;;;;;;;;;4974354;28;20455;-66
2022/01/21 10:30:49;;;;;;;1.20;1.20;;;;;;;;;;5011360;22;20235;-69
2022/01/21 10:33:22;;;;;;;0.90;0.90;;;;;;;;;;5013636;28;20179;-67
2022/01/21 10:35:50;;;;;;;1.38;1.38;;;;;;;;;;5014667;28;20254;-68
2022/01/21 10:38:18;;;;;;;1.25;1.25;;;;;;;;;;5018494;28;20175;-67
2022/01/21 10:40:44;;;;;;;1.10;1.10;;;;;;;;;;5020940;28;20201;-68
2022/01/21 10:43:12;;;;;;;1.25;1.25;;;;;;;;;;5034511;28;20177;-67
2022/01/21 10:45:48;;;;;;;1.40;1.40;;;;;;;;;;5034534;28;20184;-69
2022/01/21 10:48:14;;;;;;;1.10;1.10;;;;;;;;;;5034165;28;20211;-68
2022/01/21 10:50:39;;;;;;;1.23;1.23;;;;;;;;;;5034103;28;20189;-68
2022/01/21 10:53:05;;;;;;;1.50;1.50;;;;;;;;;;5033975;28;20509;-68
2022/01/21 10:55:33;;;;;;;1.43;1.43;;;;;;;;;;5033151;28;20422;-67
2022/01/21 10:58:07;;;;;;;1.25;1.25;;;;;;;;;;5032864;28;20949;-69
2022/01/21 11:00:33;;;;;;;1.05;1.05;;;;;;;;;;5034004;28;20199;-68
2022/01/21 11:03:08;;;;;;;1.00;1.00;;;;;;;;;;5033806;28;20638;-67
2022/01/21 11:05:39;;;;;;;1.08;1.08;;;;;;;;;;5030991;28;20182;-69
2022/01/21 11:08:08;;;;;;;1.00;1.00;;;;;;;;;;5033892;28;20530;-68
2022/01/21 11:10:35;;;;;;;1.17;1.17;;;;;;;;;;5033366;28;20281;-68
2022/01/21 11:13:03;;;;;;;1.30;1.30;;;;;;;;;;5033926;28;20532;-68
2022/01/21 11:15:39;;;;;;;1.30;1.30;;;;;;;;;;5033184;28;20175;-67
2022/01/21 11:18:06;;;;;;;1.13;1.13;;;;;;;;;;5033485;28;20161;-69
2022/01/21 11:20:36;;;;;;;1.40;1.40;;;;;;;;;;5033390;28;20272;-67
2022/01/21 11:23:02;;;;;;;1.33;1.33;;;;;;;;;;5032821;28;20173;-67
2022/01/21 11:25:48;;;;;;;1.55;1.55;;;;;;;;;;5031616;28;20185;-66
2022/01/21 11:28:15;;;;;;;1.38;1.38;;;;;;;;;;5032997;28;20204;-67
2022/01/21 11:30:41;;;;;;;1.13;1.13;;;;;;;;;;5033098;28;20289;-68
2022/01/21 11:33:07;;;;;;;1.10;1.10;;;;;;;;;;5033039;28;20197;-68
2022/01/21 11:35:33;;;;;;;0.85;0.85;;;;;;;;;;5033061;28;20245;-67
2022/01/21 11:38:02;;;;;;;1.00;1.00;;;;;;;;;;5032664;28;20252;-69
2022/01/21 11:40:28;;;;;;;0.98;0.98;;;;;;;;;;5033140;28;20197;-68
2022/01/21 11:42:55;;;;;;;1.00;1.00;;;;;;;;;;5032669;28;20185;-68
2022/01/21 11:50:38;;;;;;;1.10;1.10;;;;;;;;;;5033286;28;20203;-68
2022/01/21 11:53:05;;;;;;;1.10;1.10;;;;;;;;;;5032870;28;20221;-68
2022/01/21 11:55:45;;;;;;;1.00;1.00;;;;;;;;;;5032934;28;20515;-67
2022/01/21 11:58:21;;;;;;;1.20;1.20;;;;;;;;;;5032728;28;20584;-67
2022/01/21 12:00:49;;;;;;;1.00;1.00;;;;;;;;;;5031991;28;20202;-67
2022/01/21 12:03:16;;;;;;;0.98;0.98;;;;;;;;;;5031248;28;20224;-67
2022/01/21 12:05:42;;;;;;;1.10;1.10;;;;;;;;;;5032743;28;20171;-67
2022/01/21 12:08:08;;;;;;;1.00;1.00;;;;;;;;;;5032718;28;20269;-68
2022/01/21 12:10:42;;;;;;;1.53;1.53;;;;;;;;;;5031917;28;20316;-67
2022/01/21 12:13:15;;;;;;;1.15;1.15;;;;;;;;;;5032178;28;20404;-67
2022/01/21 12:18:34;;;;;;;1.10;1.10;;;;;;;;;;5031863;28;20181;-68
2022/01/21 12:21:20;;;;;;;1.40;1.40;;;;;;;;;;5032355;28;20199;-68
2022/01/21 12:23:46;;;;;;;1.13;1.13;;;;;;;;;;5031788;28;20221;-68
2022/01/21 12:26:12;;;;;;;1.30;1.30;;;;;;;;;;5030879;28;20217;-68
2022/01/21 12:28:42;;;;;;;1.20;1.20;;;;;;;;;;5032197;28;20455;-68
2022/01/21 12:31:09;;;;;;;1.10;1.10;;;;;;;;;;5032215;28;20823;-68
2022/01/21 12:33:58;;;;;;;1.40;1.40;;;;;;;;;;5031642;28;20179;-67
2022/01/21 12:36:28;;;;;;;1.08;1.08;;;;;;;;;;5032098;28;20165;-68
2022/01/21 12:41:20;;;;;;;0.93;0.93;;;;;;;;;;5031933;28;20287;-67
2022/01/21 12:43:47;;;;;;;1.00;1.00;;;;;;;;;;5032061;28;20423;-68
2022/01/21 12:46:30;;;;;;;1.40;1.40;;;;;;;;;;5032111;28;20409;-68
2022/01/21 12:48:57;;;;;;;0.95;0.95;;;;;;;;;;5031784;28;20197;-68
2022/01/21 12:56:45;;;;;;;1.10;1.10;;;;;;;;;;5030665;28;20180;-68
2022/01/21 12:59:18;;;;;;;1.05;1.05;;;;;;;;;;5031815;28;20185;-69
2022/01/21 13:01:45;;;;;;;1.38;1.38;;;;;;;;;;5031769;28;20252;-67
2022/01/21 13:04:18;;;;;;;1.20;1.20;;;;;;;;;;5031485;28;20184;-68
2022/01/21 13:06:44;;;;;;;1.30;1.30;;;;;;;;;;5031812;28;20207;-67
2022/01/21 13:09:19;;;;;;;1.33;1.33;;;;;;;;;;5031564;28;20630;-67
2022/01/21 13:11:53;;;;;;;1.20;1.20;;;;;;;;;;5031609;28;20435;-66
2022/01/21 13:14:45;;;;;;;1.00;1.00;;;;;;;;;;5031506;28;20639;-68
2022/01/21 13:17:05;;;;;;;1.40;1.40;;;;;;;;;;5031553;28;20183;-68
2022/01/21 13:19:41;;;;;;;1.48;1.48;;;;;;;;;;5031810;28;20179;-68
2022/01/21 13:22:13;;;;;;;1.00;1.00;;;;;;;;;;5031609;28;20204;-67
2022/01/21 13:24:51;;;;;;;1.20;1.20;;;;;;;;;;5031354;28;20248;-67
2022/01/21 13:27:17;;;;;;;1.00;1.00;;;;;;;;;;5034916;28;20203;-67
2022/01/21 13:29:43;;;;;;;1.17;1.17;;;;;;;;;;5032664;28;20679;-66
2022/01/21 13:32:09;;;;;;;1.13;1.13;;;;;;;;;;5031969;28;20313;-67
2022/01/21 13:34:39;;;;;;;1.20;1.20;;;;;;;;;;5031428;28;20206;-67
2022/01/21 13:37:06;;;;;;;1.02;1.02;;;;;;;;;;5031720;28;20408;-67
2022/01/21 13:39:34;;;;;;;1.10;1.10;;;;;;;;;;5032897;28;20235;-67
2022/01/21 13:42:09;;;;;;;1.00;1.00;;;;;;;;;;5035516;28;20562;-68
2022/01/21 13:44:52;;;;;;;1.20;1.20;;;;;;;;;;5035316;28;20168;-67
2022/01/21 13:47:24;;;;;;;1.25;1.25;;;;;;;;;;5035189;28;20644;-67
2022/01/21 13:49:50;;;;;;;1.10;1.10;;;;;;;;;;5033576;28;20201;-68
2022/01/21 13:52:16;;;;;;;0.93;0.93;;;;;;;;;;5035485;28;20717;-67
2022/01/21 13:54:47;;;;;;;1.00;1.00;;;;;;;;;;5035638;28;20776;-67
2022/01/21 13:57:15;;;;;;;1.02;1.02;;;;;;;;;;5035437;28;20423;-67
2022/01/21 13:59:42;;;;;;;1.20;1.20;;;;;;;;;;5034853;28;20173;-68
2022/01/21 14:02:16;;;;;;;1.15;1.15;;;;;;;;;;5034702;28;20231;-68
2022/01/21 14:04:53;;;;;;;1.30;1.30;;;;;;;;;;5034915;28;20177;-67
2022/01/21 14:07:22;;;;;;;0.90;0.90;;;;;;;;;;5033932;28;20544;-69
2022/01/21 14:09:48;;;;;;;0.93;0.93;;;;;;;;;;5034930;28;20212;-68
2022/01/21 14:12:14;;;;;;;1.15;1.15;;;;;;;;;;5033510;28;20252;-66
2022/01/21 14:14:41;;;;;;;0.90;0.90;;;;;;;;;;5034523;28;20172;-67
2022/01/21 14:17:07;;;;;;;1.20;1.20;;;;;;;;;;5034879;28;20450;-68
2022/01/21 14:19:38;;;;;;;1.10;1.10;;;;;;;;;;5034808;28;20176;-67
2022/01/21 14:22:05;;;;;;;1.10;1.10;;;;;;;;;;5033500;28;20203;-69
2022/01/21 14:24:38;;;;;;;1.13;1.13;;;;;;;;;;5034473;28;20232;-68
2022/01/21 14:27:04;;;;;;;0.85;0.85;;;;;;;;;;5034708;28;20568;-68
2022/01/21 14:29:34;;;;;;;1.30;1.30;;;;;;;;;;5034451;28;20196;-68
2022/01/21 14:32:15;;;;;;;1.60;1.60;;;;;;;;;;5034006;28;20449;-67
2022/01/21 14:34:41;;;;;;;1.35;1.35;;;;;;;;;;5034057;28;20162;-68
2022/01/21 14:37:09;;;;;;;1.30;1.30;;;;;;;;;;5034077;28;20176;-68
2022/01/21 14:39:37;;;;;;;1.27;1.27;;;;;;;;;;5032546;28;20410;-68
2022/01/21 14:42:03;;;;;;;1.52;1.52;;;;;;;;;;5033637;28;20201;-67
2022/01/21 14:44:33;;;;;;;1.20;1.20;;;;;;;;;;5033687;28;20179;-67
2022/01/21 14:47:10;;;;;;;1.10;1.10;;;;;;;;;;5032242;28;20278;-66
2022/01/21 14:49:37;;;;;;;1.30;1.30;;;;;;;;;;5033806;28;20272;-67
2022/01/21 14:52:33;;;;;;;1.35;1.35;;;;;;;;;;5029660;28;20584;-67
2022/01/21 14:54:50;;;;;;;1.08;1.08;;;;;;;;;;5033488;28;20188;-67
2022/01/21 14:57:16;;;;;;;1.30;1.30;;;;;;;;;;5033294;28;20235;-68
2022/01/21 14:59:55;;;;;;;0.90;0.90;;;;;;;;;;5033035;28;20268;-67
2022/01/21 15:02:28;;;;;;;1.30;1.30;;;;;;;;;;5032978;28;20436;-65
2022/01/21 15:04:55;;;;;;;1.40;1.40;;;;;;;;;;5033423;28;20184;-66
2022/01/21 15:07:25;;;;;;;1.40;1.40;;;;;;;;;;5032992;28;20181;-67
2022/01/21 15:09:53;;;;;;;1.35;1.35;;;;;;;;;;5032922;28;20209;-67
2022/01/21 15:15:33;;;;;;;1.00;1.00;;;;;;;;;;5033628;28;20274;-67
2022/01/21 15:17:59;;;;;;;1.20;1.20;;;;;;;;;;5033330;28;20173;-67
2022/01/21 15:20:36;;;;;;;1.25;1.25;;;;;;;;;;5033268;28;20233;-67
2022/01/21 15:23:03;;;;;;;1.23;1.23;;;;;;;;;;5032892;28;20595;-67
2022/01/21 15:25:29;;;;;;;1.40;1.40;;;;;;;;;;5033529;28;20178;-67
2022/01/21 15:27:55;;;;;;;1.85;1.85;;;;;;;;;;5032750;28;20177;-66
2022/01/21 15:30:25;;;;;;;1.40;1.40;;;;;;;;;;5032875;28;20699;-67
2022/01/21 15:32:51;;;;;;;1.60;1.60;;;;;;;;;;5032879;28;20412;-67
2022/01/21 15:35:18;;;;;;;1.50;1.50;;;;;;;;;;5031058;28;20266;-67
2022/01/21 15:37:44;;;;;;;1.25;1.25;;;;;;;;;;5032751;28;20177;-67
2022/01/21 15:40:10;;;;;;;1.40;1.40;;;;;;;;;;5032720;28;20182;-66
2022/01/21 15:42:37;;;;;;;2.13;2.03;;;;;;;;;;5032053;28;20189;-66
2022/01/21 15:45:03;;;;;;;2.20;2.10;;;;;;;;;;5030897;28;20184;-64
2022/01/21 15:47:29;;;;;;;1.20;1.20;;;;;;;;;;5027979;28;20185;-67
2022/01/21 15:49:56;;;;;;;1.10;1.10;;;;;;;;;;5026400;28;20253;-65
2022/01/21 15:52:22;;;;;;;1.35;1.35;;;;;;;;;;5020696;28;20200;-65